Time;durP1;ratioP1;P1;durP2;ratioP2;P2;SDS_P1;SDS_P2;PMS_P1;PMS_P2;Temp;Humidity;BMP_temperature;BMP_pressure;BME280_temperature;BME280_humidity;BME280_pressure;Samples;Min_cycle;Max_cycle;Signal;HPM_P1;HPM_P2
2022/12/31 00:02:13;;;;;;;0.10;0.10;;;;;;;10.57;100.00;95777.09;4962365;28;20155;-73
2022/12/31 00:04:58;;;;;;;0.10;0.10;;;;;;;10.51;100.00;95780.88;4966366;28;20042;-74
2022/12/31 00:07:44;;;;;;;0.10;0.10;;;;;;;10.57;100.00;95760.25;4967030;28;20507;-73
2022/12/31 00:10:30;;;;;;;0.10;0.10;;;;;;;10.58;100.00;95754.66;4966885;28;20522;-72
2022/12/31 00:13:16;;;;;;;0.15;0.15;;;;;;;10.62;100.00;95772.84;4964626;28;20095;-74
2022/12/31 00:16:10;;;;;;;0.20;0.20;;;;;;;10.59;100.00;95774.19;4965964;28;20046;-73
2022/12/31 00:18:58;;;;;;;0.10;0.10;;;;;;;10.60;100.00;95781.16;4964477;28;20502;-74
2022/12/31 00:21:44;;;;;;;0.10;0.10;;;;;;;10.63;100.00;95777.94;4966727;28;20255;-72
2022/12/31 00:24:30;;;;;;;0.10;0.10;;;;;;;10.62;100.00;95767.50;4964922;28;20509;-72
2022/12/31 00:27:16;;;;;;;0.10;0.10;;;;;;;10.59;100.00;95775.00;4966314;28;20092;-74
2022/12/31 00:30:04;;;;;;;0.10;0.10;;;;;;;10.67;100.00;95754.94;4965299;28;20483;-73
2022/12/31 00:32:50;;;;;;;0.10;0.10;;;;;;;10.67;100.00;95749.59;4966422;28;20073;-74
2022/12/31 00:35:35;;;;;;;0.20;0.20;;;;;;;10.72;100.00;95756.81;4964356;28;20044;-74
2022/12/31 00:38:21;;;;;;;0.10;0.10;;;;;;;10.76;100.00;95747.19;4962657;28;20086;-74
2022/12/31 00:41:08;;;;;;;0.10;0.10;;;;;;;10.83;100.00;95759.25;4963140;28;20049;-72
2022/12/31 00:43:54;;;;;;;0.20;0.20;;;;;;;10.84;100.00;95755.50;4964380;28;20659;-74
2022/12/31 00:46:40;;;;;;;0.20;0.20;;;;;;;10.87;100.00;95746.91;4964553;28;20074;-72
2022/12/31 00:49:26;;;;;;;0.10;0.10;;;;;;;10.91;100.00;95757.91;4966101;28;20281;-74
2022/12/31 00:52:14;;;;;;;0.10;0.10;;;;;;;10.99;100.00;95756.56;4963041;28;20073;-72
2022/12/31 00:55:00;;;;;;;0.10;0.10;;;;;;;11.02;100.00;95762.19;4964712;28;20130;-71
2022/12/31 00:57:46;;;;;;;0.10;0.10;;;;;;;10.98;100.00;95766.47;4976278;28;20049;-71
2022/12/31 01:00:32;;;;;;;0.10;0.10;;;;;;;11.07;100.00;95748.00;4962276;28;20463;-73
2022/12/31 01:03:17;;;;;;;0.13;0.13;;;;;;;11.12;100.00;95759.50;4942820;28;20618;-74
2022/12/31 01:06:07;;;;;;;0.10;0.10;;;;;;;11.09;100.00;95768.06;4944872;28;20456;-74
2022/12/31 01:08:54;;;;;;;0.10;0.10;;;;;;;11.14;100.00;95767.28;4943925;28;20154;-73
2022/12/31 01:11:41;;;;;;;0.10;0.10;;;;;;;11.18;100.00;95781.72;4946518;28;20361;-75
2022/12/31 01:14:27;;;;;;;0.10;0.10;;;;;;;11.20;100.00;95758.16;4943452;28;20459;-74
2022/12/31 01:17:12;;;;;;;0.10;0.10;;;;;;;11.23;100.00;95744.25;4944626;28;20334;-73
2022/12/31 01:19:58;;;;;;;0.10;0.10;;;;;;;11.22;100.00;95772.09;4944495;28;20045;-75
2022/12/31 01:22:44;;;;;;;0.10;0.10;;;;;;;11.21;100.00;95770.50;4944788;28;20209;-73
2022/12/31 01:25:34;;;;;;;0.10;0.10;;;;;;;11.17;100.00;95780.13;4942258;28;20050;-72
2022/12/31 01:28:19;;;;;;;0.10;0.10;;;;;;;11.09;100.00;95770.75;4944885;28;20418;-74
2022/12/31 01:31:11;;;;;;;0.10;0.10;;;;;;;11.12;100.00;95782.78;4951709;28;20049;-71
2022/12/31 01:33:57;;;;;;;0.10;0.10;;;;;;;11.05;100.00;95779.56;4965820;28;20060;-74
2022/12/31 01:36:43;;;;;;;0.10;0.10;;;;;;;11.01;100.00;95797.25;4965439;28;20046;-74
2022/12/31 01:39:29;;;;;;;0.10;0.10;;;;;;;11.05;100.00;95784.94;4965232;28;20061;-75
2022/12/31 01:42:15;;;;;;;0.10;0.10;;;;;;;10.98;100.00;95789.75;4964904;28;20038;-73
2022/12/31 01:45:00;;;;;;;0.10;0.10;;;;;;;10.97;100.00;95796.16;4962941;28;20120;-71
2022/12/31 01:47:50;;;;;;;0.20;0.20;;;;;;;10.97;100.00;95798.84;4964936;28;20554;-72
2022/12/31 01:50:39;;;;;;;0.10;0.10;;;;;;;10.96;100.00;95789.22;4965951;28;20093;-73
2022/12/31 01:53:25;;;;;;;0.10;0.10;;;;;;;10.90;100.00;95804.47;4974682;28;20419;-73
2022/12/31 01:56:11;;;;;;;0.10;0.10;;;;;;;10.92;100.00;95798.84;4960468;28;20093;-73
2022/12/31 01:58:58;;;;;;;0.10;0.10;;;;;;;10.91;100.00;95775.84;4964974;28;20518;-74
2022/12/31 02:01:46;;;;;;;0.20;0.20;;;;;;;10.85;100.00;95794.56;4962170;28;20062;-73
2022/12/31 02:04:32;;;;;;;0.10;0.10;;;;;;;10.85;100.00;95789.22;4963686;28;20081;-74
2022/12/31 02:07:18;;;;;;;0.10;0.10;;;;;;;10.88;100.00;95794.00;4963352;28;20283;-73
2022/12/31 02:10:05;;;;;;;0.10;0.10;;;;;;;10.83;100.00;95833.38;4963165;28;20356;-72
2022/12/31 02:12:51;;;;;;;0.10;0.10;;;;;;;10.87;100.00;95786.25;4963450;28;20056;-73
2022/12/31 02:15:53;;;;;;;0.10;0.10;;;;;;;10.85;100.00;95802.59;4965326;28;20397;-74
2022/12/31 02:18:56;;;;;;;0.10;0.10;;;;;;;10.92;100.00;95805.00;4964508;28;20380;-72
2022/12/31 02:22:05;;;;;;;0.10;0.10;;;;;;;10.88;100.00;95818.09;4962529;28;20124;-74
2022/12/31 02:25:15;;;;;;;0.10;0.10;;;;;;;10.95;100.00;95809.03;4963815;28;20053;-74
2022/12/31 02:28:22;;;;;;;0.10;0.10;;;;;;;10.98;100.00;95835.28;4965224;28;20312;-71
2022/12/31 02:31:20;;;;;;;0.10;0.10;;;;;;;11.03;100.00;95805.81;4961086;28;20542;-70
2022/12/31 02:34:16;;;;;;;0.10;0.10;;;;;;;11.01;100.00;95799.94;4962106;28;20635;-74
2022/12/31 02:37:08;;;;;;;0.10;0.10;;;;;;;11.02;100.00;95805.00;4963842;28;20046;-73
2022/12/31 02:39:56;;;;;;;0.20;0.20;;;;;;;11.01;100.00;95810.63;4964258;28;20038;-73
2022/12/31 02:42:42;;;;;;;0.10;0.10;;;;;;;11.04;100.00;95804.75;4963471;28;20038;-72
2022/12/31 02:45:40;;;;;;;0.10;0.10;;;;;;;11.10;100.00;95806.34;4961396;28;20555;-74
2022/12/31 02:48:37;;;;;;;0.13;0.13;;;;;;;11.08;100.00;95811.97;4961492;28;20161;-73
2022/12/31 02:51:46;;;;;;;0.10;0.10;;;;;;;11.10;100.00;95822.41;4963348;28;20491;-73
2022/12/31 02:54:40;;;;;;;0.10;0.10;;;;;;;11.10;100.00;95812.50;4963963;28;20429;-74
2022/12/31 02:57:54;;;;;;;0.10;0.10;;;;;;;11.10;100.00;95787.63;4962076;28;20574;-73
2022/12/31 03:04:30;;;;;;;0.10;0.10;;;;;;;11.08;100.00;95830.72;4962688;28;20113;-74
2022/12/31 03:07:01;;;;;;;0.10;0.10;;;;;;;11.12;100.00;95813.03;4964177;28;20518;-74
2022/12/31 03:09:47;;;;;;;0.10;0.10;;;;;;;11.14;100.00;95813.59;4963457;28;20343;-73
2022/12/31 03:12:46;;;;;;;0.20;0.20;;;;;;;11.18;100.00;95834.47;4964977;28;20077;-74
2022/12/31 03:15:33;;;;;;;0.20;0.20;;;;;;;11.25;100.00;95838.50;4965747;28;20515;-72
2022/12/31 03:22:26;;;;;;;0.20;0.20;;;;;;;11.25;100.00;95829.66;4964368;28;20149;-74
2022/12/31 03:27:39;;;;;;;0.10;0.10;;;;;;;11.27;100.00;95839.03;4965942;28;21013;-75
2022/12/31 03:30:25;;;;;;;0.10;0.10;;;;;;;11.33;100.00;95843.31;4964675;28;20073;-73
2022/12/31 03:33:11;;;;;;;0.10;0.10;;;;;;;11.31;100.00;95848.16;4964669;28;20049;-74
2022/12/31 03:35:57;;;;;;;0.10;0.10;;;;;;;11.35;100.00;95833.13;4966884;28;20046;-75
2022/12/31 03:38:43;;;;;;;0.10;0.10;;;;;;;11.35;100.00;95865.28;4963523;28;20077;-74
2022/12/31 03:41:29;;;;;;;0.13;0.13;;;;;;;11.38;100.00;95854.03;4965277;28;20503;-75
2022/12/31 03:44:14;;;;;;;0.10;0.10;;;;;;;11.42;100.00;95841.72;4965562;28;20046;-74
2022/12/31 03:47:01;;;;;;;0.10;0.10;;;;;;;11.40;100.00;95849.22;4966786;28;20121;-75
2022/12/31 03:49:47;;;;;;;0.13;0.13;;;;;;;11.43;100.00;95842.50;4966431;28;20113;-75
2022/12/31 03:52:32;;;;;;;0.10;0.10;;;;;;;11.47;100.00;95853.50;4964889;28;20046;-72
2022/12/31 03:55:18;;;;;;;0.10;0.10;;;;;;;11.44;100.00;95854.84;4965598;28;20152;-73
2022/12/31 03:58:05;;;;;;;0.10;0.10;;;;;;;11.48;100.00;95871.19;4966553;28;20840;-74
2022/12/31 04:00:51;;;;;;;0.10;0.10;;;;;;;11.49;100.00;95857.50;4961713;28;20039;-74
2022/12/31 04:03:37;;;;;;;0.10;0.10;;;;;;;11.52;100.00;95861.56;4945528;28;20511;-73
2022/12/31 04:06:23;;;;;;;0.10;0.10;;;;;;;11.48;100.00;95880.03;4944093;28;20038;-75
2022/12/31 04:09:08;;;;;;;0.10;0.10;;;;;;;11.44;100.00;95860.22;4944304;28;20383;-75
2022/12/31 04:11:54;;;;;;;0.10;0.10;;;;;;;11.43;100.00;95866.63;4947826;28;20415;-74
2022/12/31 04:14:40;;;;;;;0.10;0.10;;;;;;;11.39;100.00;95865.56;4946541;28;20118;-74
2022/12/31 04:17:26;;;;;;;0.10;0.10;;;;;;;11.41;100.00;95872.25;4955468;28;20921;-75
2022/12/31 04:20:13;;;;;;;0.17;0.17;;;;;;;11.40;100.00;95856.44;4945043;28;20102;-73
2022/12/31 04:22:59;;;;;;;0.20;0.20;;;;;;;11.46;100.00;95876.81;4944969;28;20479;-73
2022/12/31 04:25:45;;;;;;;0.10;0.10;;;;;;;11.50;100.00;95890.47;4946263;28;20045;-72
2022/12/31 04:28:31;;;;;;;0.10;0.10;;;;;;;11.55;100.00;95861.81;4943730;28;20050;-73
2022/12/31 04:31:17;;;;;;;0.10;0.10;;;;;;;11.55;100.00;95879.75;4944464;28;20436;-72
2022/12/31 04:34:05;;;;;;;0.10;0.10;;;;;;;11.59;100.00;95864.75;4943005;28;20138;-74
2022/12/31 04:36:51;;;;;;;0.20;0.20;;;;;;;11.57;100.00;95830.19;4946107;28;20447;-74
2022/12/31 04:39:37;;;;;;;0.20;0.20;;;;;;;11.59;100.00;95848.66;4946655;28;20049;-72
2022/12/31 04:42:22;;;;;;;0.10;0.10;;;;;;;11.59;100.00;95845.97;4955307;28;20043;-75
2022/12/31 04:45:09;;;;;;;0.10;0.10;;;;;;;11.58;100.00;95869.28;4947085;28;20531;-74
2022/12/31 04:47:55;;;;;;;0.10;0.10;;;;;;;11.61;100.00;95871.47;4946712;28;20050;-74
2022/12/31 04:50:41;;;;;;;0.10;0.10;;;;;;;11.61;100.00;95867.97;4945110;28;20567;-72
2022/12/31 04:53:27;;;;;;;0.10;0.10;;;;;;;11.61;100.00;95865.28;4943667;28;20050;-75
2022/12/31 04:56:13;;;;;;;0.10;0.10;;;;;;;11.61;100.00;95866.09;4944405;28;20649;-72
2022/12/31 04:58:59;;;;;;;0.10;0.10;;;;;;;11.66;100.00;95884.84;4945167;28;20043;-74
2022/12/31 05:01:45;;;;;;;0.10;0.10;;;;;;;11.61;100.00;95889.41;4944466;28;20142;-74
2022/12/31 05:04:31;;;;;;;0.10;0.10;;;;;;;11.58;100.00;95876.53;4944187;28;20801;-73
2022/12/31 05:07:17;;;;;;;0.10;0.10;;;;;;;11.64;100.00;95870.91;4945759;28;20043;-72
2022/12/31 05:10:03;;;;;;;0.10;0.10;;;;;;;11.60;100.00;95888.63;4950280;28;20073;-71
2022/12/31 05:12:49;;;;;;;0.10;0.10;;;;;;;11.62;100.00;95874.94;4943266;28;20134;-71
2022/12/31 05:15:35;;;;;;;0.20;0.20;;;;;;;11.67;100.00;95869.56;4959899;28;20047;-70
2022/12/31 05:18:21;;;;;;;0.10;0.10;;;;;;;11.68;100.00;95901.47;4944945;28;20039;-74
2022/12/31 05:21:13;;;;;;;0.10;0.10;;;;;;;11.71;100.00;95902.81;4945592;28;20045;-74
2022/12/31 05:23:59;;;;;;;0.20;0.20;;;;;;;11.69;100.00;95883.50;4946426;28;20320;-74
2022/12/31 05:26:45;;;;;;;0.10;0.10;;;;;;;11.68;100.00;95896.13;4946767;28;20049;-71
2022/12/31 05:29:31;;;;;;;0.10;0.10;;;;;;;11.68;100.00;95922.91;4946254;28;20069;-73
2022/12/31 05:32:17;;;;;;;0.10;0.10;;;;;;;11.78;100.00;95911.38;4974857;28;20046;-72
2022/12/31 05:35:03;;;;;;;0.10;0.10;;;;;;;11.75;100.00;95914.59;4964979;28;20042;-73
2022/12/31 05:37:49;;;;;;;0.20;0.20;;;;;;;11.71;100.00;95910.84;4977163;28;20053;-72
2022/12/31 05:40:35;;;;;;;0.15;0.15;;;;;;;11.80;100.00;95919.16;4964077;28;20067;-75
2022/12/31 05:43:21;;;;;;;0.10;0.10;;;;;;;11.78;100.00;95923.97;4961058;28;20479;-74
2022/12/31 05:46:07;;;;;;;0.10;0.10;;;;;;;11.76;100.00;95940.34;4966908;28;20518;-74
2022/12/31 05:48:52;;;;;;;0.10;0.10;;;;;;;11.78;100.00;95921.31;4964367;28;20725;-74
2022/12/31 05:51:38;;;;;;;0.10;0.10;;;;;;;11.80;100.00;95935.22;4976634;28;20195;-71
2022/12/31 05:54:24;;;;;;;0.20;0.20;;;;;;;11.78;100.00;95935.50;4964828;28;20444;-74
2022/12/31 05:57:10;;;;;;;0.20;0.20;;;;;;;11.82;100.00;95935.78;4966203;28;20057;-74
2022/12/31 05:59:56;;;;;;;0.10;0.10;;;;;;;11.80;100.00;95936.06;4964902;28;20038;-74
2022/12/31 06:02:42;;;;;;;0.10;0.10;;;;;;;11.81;100.00;95934.97;4962908;28;20442;-71
2022/12/31 06:05:27;;;;;;;0.10;0.10;;;;;;;11.86;100.00;95939.56;4963691;28;21127;-75
2022/12/31 06:08:13;;;;;;;0.10;0.10;;;;;;;11.83;100.00;95942.75;4963511;28;20051;-74
2022/12/31 06:10:59;;;;;;;0.20;0.20;;;;;;;11.76;100.00;95932.28;4964084;28;20152;-74
2022/12/31 06:13:45;;;;;;;0.10;0.10;;;;;;;11.79;100.00;95926.38;4963375;28;20046;-73
2022/12/31 06:16:31;;;;;;;0.20;0.20;;;;;;;11.76;100.00;95926.13;4963527;28;20038;-72
2022/12/31 06:19:19;;;;;;;0.10;0.10;;;;;;;11.71;100.00;95932.28;4964609;28;20949;-74
2022/12/31 06:22:04;;;;;;;0.10;0.10;;;;;;;11.72;100.00;95949.97;4962604;28;20347;-73
2022/12/31 06:24:51;;;;;;;0.13;0.13;;;;;;;11.72;100.00;95950.78;4967246;28;20473;-73
2022/12/31 06:27:37;;;;;;;0.10;0.10;;;;;;;11.72;100.00;95931.22;4962932;28;20502;-72
2022/12/31 06:30:23;;;;;;;0.10;0.10;;;;;;;11.73;100.00;95948.91;4960378;28;20042;-74
2022/12/31 06:33:08;;;;;;;0.10;0.10;;;;;;;11.82;100.00;95949.19;4942141;28;20046;-72
2022/12/31 06:35:59;;;;;;;0.10;0.10;;;;;;;11.86;100.00;95937.69;4943387;28;20058;-76
2022/12/31 06:38:45;;;;;;;0.17;0.17;;;;;;;11.92;100.00;95941.97;4943448;28;20070;-72
2022/12/31 06:41:31;;;;;;;0.10;0.10;;;;;;;11.88;100.00;95948.94;4942900;28;20085;-71
2022/12/31 06:44:17;;;;;;;0.10;0.10;;;;;;;11.97;100.00;95963.41;4943449;28;20336;-72
2022/12/31 06:47:03;;;;;;;0.10;0.10;;;;;;;12.00;100.00;95959.38;4945944;28;20050;-72
2022/12/31 06:49:49;;;;;;;0.15;0.15;;;;;;;12.01;100.00;95973.59;4949614;28;20303;-72
2022/12/31 06:52:35;;;;;;;0.10;0.10;;;;;;;12.02;100.00;95978.69;4948644;28;20153;-71
2022/12/31 06:55:21;;;;;;;0.10;0.10;;;;;;;12.03;100.00;95979.50;4960313;28;20046;-73
2022/12/31 06:58:12;;;;;;;0.10;0.10;;;;;;;12.05;100.00;95986.19;4947245;28;20042;-71
2022/12/31 07:01:05;;;;;;;0.10;0.10;;;;;;;12.10;100.00;95988.06;4959288;28;20113;-73
2022/12/31 07:04:07;;;;;;;0.10;0.10;;;;;;;12.12;100.00;96002.00;4948083;28;20396;-74
2022/12/31 07:07:11;;;;;;;;;;;;;;;12.14;100.00;96000.69;4948184;28;20416;-74
2022/12/31 07:10:20;;;;;;;0.10;0.10;;;;;;;12.20;100.00;96001.47;4949284;28;19922;-74
2022/12/31 07:13:24;;;;;;;0.10;0.10;;;;;;;12.17;100.00;96002.81;4949285;28;20046;-72
2022/12/31 07:16:24;;;;;;;0.10;0.10;;;;;;;12.19;100.00;95997.19;4949030;28;20325;-73
2022/12/31 07:19:29;;;;;;;0.10;0.10;;;;;;;12.16;100.00;95985.13;4948402;28;20540;-75
2022/12/31 07:22:16;;;;;;;0.10;0.10;;;;;;;12.12;100.00;95983.25;4947526;28;20109;-72
2022/12/31 07:25:02;;;;;;;0.10;0.10;;;;;;;12.14;100.00;95963.13;4947710;28;20039;-73
2022/12/31 07:28:05;;;;;;;0.10;0.10;;;;;;;12.18;100.00;96000.94;4948062;28;20081;-73
2022/12/31 07:31:04;;;;;;;0.10;0.10;;;;;;;12.21;100.00;95997.72;4947746;28;20442;-73
2022/12/31 07:33:57;;;;;;;0.10;0.10;;;;;;;12.23;100.00;96012.47;4949085;28;20278;-73
2022/12/31 07:36:43;;;;;;;0.20;0.20;;;;;;;12.23;100.00;95996.38;4947134;28;20066;-75
2022/12/31 07:40:09;;;;;;;0.20;0.20;;;;;;;12.30;100.00;95995.31;4932997;28;20439;-74
2022/12/31 07:43:16;;;;;;;0.20;0.20;;;;;;;12.24;100.00;96005.22;4947888;28;20134;-74
2022/12/31 07:46:34;;;;;;;0.10;0.10;;;;;;;12.31;100.00;95996.91;4949007;28;20039;-75
2022/12/31 07:49:24;;;;;;;0.10;0.10;;;;;;;12.30;100.00;96000.69;4945206;28;20051;-74
2022/12/31 07:52:10;;;;;;;0.10;0.10;;;;;;;12.31;100.00;96013.81;4949206;28;20043;-75
2022/12/31 07:54:56;;;;;;;0.10;0.10;;;;;;;12.29;100.00;96040.09;4946071;28;20045;-74
2022/12/31 07:57:57;;;;;;;0.10;0.10;;;;;;;12.31;100.00;96011.13;4947742;28;20643;-72
2022/12/31 08:00:44;;;;;;;0.10;0.10;;;;;;;12.39;100.00;96036.63;4960206;28;20133;-73
2022/12/31 08:04:06;;;;;;;0.10;0.10;;;;;;;12.44;100.00;96012.44;4958591;28;20069;-73
2022/12/31 08:07:25;;;;;;;0.10;0.10;;;;;;;12.44;100.00;96039.28;4948024;28;20469;-72
2022/12/31 08:10:47;;;;;;;0.10;0.10;;;;;;;12.39;100.00;96018.63;4949648;28;20113;-72
2022/12/31 08:13:33;;;;;;;0.10;0.10;;;;;;;12.47;100.00;96028.81;4947145;28;20046;-73
2022/12/31 08:16:20;;;;;;;0.10;0.10;;;;;;;12.47;100.00;96026.13;4960770;28;20122;-74
2022/12/31 08:19:19;;;;;;;0.17;0.17;;;;;;;12.49;100.00;96036.59;4947359;28;20047;-74
2022/12/31 08:22:32;;;;;;;0.10;0.10;;;;;;;12.48;100.00;96041.16;4949268;28;20035;-73
2022/12/31 08:25:48;;;;;;;0.10;0.10;;;;;;;12.53;100.00;96037.69;4950570;28;20300;-75
2022/12/31 08:28:46;;;;;;;0.20;0.20;;;;;;;12.52;100.00;96031.47;4946605;28;20057;-73
2022/12/31 08:31:51;;;;;;;0.10;0.10;;;;;;;12.55;100.00;96036.31;4948604;28;20089;-74
2022/12/31 08:34:39;;;;;;;0.10;0.10;;;;;;;12.52;100.00;96042.22;4960725;28;20039;-73
2022/12/31 08:37:47;;;;;;;0.10;0.10;;;;;;;12.59;100.00;96030.41;4950786;28;20689;-74
2022/12/31 08:40:38;;;;;;;0.10;0.10;;;;;;;12.64;100.00;96049.19;4948614;28;20536;-74
2022/12/31 08:43:42;;;;;;;;;;;;;;;12.63;100.00;96063.69;4948093;28;20046;-75
2022/12/31 08:46:37;;;;;;;0.10;0.10;;;;;;;12.67;100.00;96070.91;4947848;28;20337;-74
2022/12/31 08:49:26;;;;;;;0.10;0.10;;;;;;;12.67;100.00;96065.53;4947277;28;20138;-75
2022/12/31 08:52:18;;;;;;;0.13;0.13;;;;;;;12.63;100.00;96069.88;4960312;28;20141;-74
2022/12/31 08:55:05;;;;;;;0.10;0.10;;;;;;;12.64;100.00;96057.25;4949211;28;20045;-74
2022/12/31 08:58:30;;;;;;;0.10;0.10;;;;;;;12.68;100.00;96066.34;4960978;28;21210;-74
2022/12/31 09:01:20;;;;;;;0.10;0.10;;;;;;;12.63;100.00;96058.31;4949342;28;20065;-72
2022/12/31 09:04:30;;;;;;;0.15;0.15;;;;;;;12.62;100.00;96088.94;4950147;28;20518;-74
2022/12/31 09:07:22;;;;;;;0.10;0.10;;;;;;;12.63;100.00;96118.19;4944904;28;20125;-74
2022/12/31 09:10:23;;;;;;;0.10;0.10;;;;;;;12.65;100.00;96093.75;4945438;28;20039;-75
2022/12/31 09:13:43;;;;;;;0.20;0.20;;;;;;;12.67;100.00;96096.94;4949136;28;20082;-74
2022/12/31 09:16:39;;;;;;;0.10;0.10;;;;;;;12.69;100.00;96103.69;4965651;28;20042;-75
2022/12/31 09:19:24;;;;;;;0.10;0.10;;;;;;;12.66;100.00;96112.25;4950292;28;20333;-75
2022/12/31 09:22:10;;;;;;;0.10;0.10;;;;;;;12.68;100.00;96110.09;4965875;28;20061;-75
2022/12/31 09:24:57;;;;;;;0.10;0.10;;;;;;;12.66;100.00;96106.09;4957511;28;20046;-76
2022/12/31 09:27:55;;;;;;;0.10;0.10;;;;;;;12.64;100.00;96100.19;4964744;28;20070;-76
2022/12/31 09:30:53;;;;;;;0.10;0.10;;;;;;;12.71;100.00;96125.69;4966871;28;20510;-72
2022/12/31 09:33:54;;;;;;;0.10;0.10;;;;;;;12.67;100.00;96129.97;4968485;28;20234;-73
2022/12/31 09:36:48;;;;;;;0.10;0.10;;;;;;;12.70;100.00;96125.97;4980259;28;20334;-74
2022/12/31 09:39:43;;;;;;;0.10;0.10;;;;;;;12.78;100.00;96128.09;4963624;28;20076;-73
2022/12/31 09:42:35;;;;;;;0.10;0.10;;;;;;;12.76;100.00;96138.28;4966771;28;20034;-74
2022/12/31 09:45:27;;;;;;;0.15;0.15;;;;;;;12.82;100.00;96138.00;4966232;28;20464;-75
2022/12/31 09:48:39;;;;;;;0.10;0.10;;;;;;;12.81;100.00;96133.72;4966299;28;20128;-76
2022/12/31 09:51:48;;;;;;;0.20;0.20;;;;;;;12.82;100.00;96127.28;4964872;28;20555;-74
2022/12/31 09:55:18;;;;;;;0.20;0.20;;;;;;;12.98;100.00;96125.38;4964720;28;20046;-75
2022/12/31 09:58:42;;;;;;;0.10;0.10;;;;;;;13.11;100.00;96126.69;4961589;28;20571;-75
2022/12/31 10:01:40;;;;;;;0.10;0.10;;;;;;;13.43;100.00;96130.94;4950993;28;20134;-76
2022/12/31 10:05:03;;;;;;;0.13;0.13;;;;;;;13.66;100.00;96098.84;4944347;28;20054;-75
2022/12/31 10:08:06;;;;;;;0.10;0.10;;;;;;;13.58;100.00;96120.94;4944629;28;20046;-73
2022/12/31 10:11:01;;;;;;;0.20;0.20;;;;;;;13.46;100.00;96131.19;4946946;28;20547;-73
2022/12/31 10:13:52;;;;;;;0.10;0.10;;;;;;;13.36;100.00;96125.84;4945587;28;20035;-73
2022/12/31 10:17:04;;;;;;;0.20;0.20;;;;;;;13.33;100.00;96137.16;4962046;28;20046;-75
2022/12/31 10:20:01;;;;;;;0.10;0.10;;;;;;;13.38;100.00;96127.22;4958627;28;20080;-76
2022/12/31 10:23:06;;;;;;;0.10;0.10;;;;;;;13.45;100.00;96137.63;4966443;28;20092;-73
2022/12/31 10:26:15;;;;;;;0.10;0.10;;;;;;;13.50;100.00;96143.00;4964787;28;20034;-73
2022/12/31 10:29:40;;;;;;;0.10;0.10;;;;;;;13.63;100.00;96137.06;4965123;28;20138;-76
2022/12/31 10:32:53;;;;;;;0.10;0.10;;;;;;;13.54;100.00;96141.41;4946701;28;20068;-73
2022/12/31 10:35:42;;;;;;;0.10;0.10;;;;;;;13.59;100.00;96146.72;4947707;28;20075;-73
2022/12/31 10:38:37;;;;;;;0.20;0.20;;;;;;;13.61;100.00;96168.75;4946819;28;20300;-73
2022/12/31 10:41:48;;;;;;;0.20;0.20;;;;;;;13.74;100.00;96155.81;4941540;28;20074;-75
2022/12/31 10:45:11;;;;;;;0.10;0.10;;;;;;;13.74;100.00;96162.00;4943830;28;20063;-74
2022/12/31 10:48:36;;;;;;;0.10;0.10;;;;;;;13.68;100.00;96151.53;4946133;28;20534;-74
2022/12/31 10:52:00;;;;;;;0.20;0.20;;;;;;;13.61;100.00;96184.09;4957886;28;20503;-73
2022/12/31 10:54:58;;;;;;;0.10;0.10;;;;;;;13.58;100.00;96161.25;4944496;28;20429;-76
2022/12/31 10:58:02;;;;;;;0.10;0.10;;;;;;;13.74;100.00;96175.44;4944285;28;20053;-73
2022/12/31 11:01:02;;;;;;;0.10;0.10;;;;;;;13.71;100.00;96165.25;4948671;28;20096;-75
2022/12/31 11:03:58;;;;;;;0.20;0.20;;;;;;;13.73;100.00;96170.34;4965392;28;20145;-75
2022/12/31 11:06:49;;;;;;;0.10;0.10;;;;;;;13.61;100.00;96176.81;4964143;28;20054;-74
2022/12/31 11:09:50;;;;;;;0.10;0.10;;;;;;;13.67;100.00;96169.56;4966108;28;20070;-73
2022/12/31 11:12:42;;;;;;;0.20;0.20;;;;;;;13.57;100.00;96167.72;4967439;28;20379;-74
2022/12/31 11:15:53;;;;;;;0.10;0.10;;;;;;;13.68;100.00;96164.97;4965917;28;20270;-75
2022/12/31 11:19:16;;;;;;;0.10;0.10;;;;;;;13.72;100.00;96166.84;4965851;28;20590;-72
2022/12/31 11:22:18;;;;;;;0.10;0.10;;;;;;;13.61;100.00;96149.13;4966423;28;20041;-75
2022/12/31 11:25:10;;;;;;;0.20;0.20;;;;;;;13.58;100.00;96169.31;4968169;28;20046;-75
2022/12/31 11:28:34;;;;;;;0.20;0.20;;;;;;;13.52;100.00;96167.72;4966187;28;20055;-75
2022/12/31 11:31:26;;;;;;;0.10;0.10;;;;;;;13.65;100.00;96191.34;4953911;28;20784;-75
2022/12/31 11:34:33;;;;;;;0.10;0.10;;;;;;;13.59;100.00;96168.25;4949000;28;20452;-74
2022/12/31 11:37:43;;;;;;;0.20;0.20;;;;;;;13.55;100.00;96159.13;4606208;28;10000235;-73
2022/12/31 11:40:53;;;;;;;0.10;0.10;;;;;;;13.66;100.00;96168.75;4961274;28;20046;-73
2022/12/31 11:43:55;;;;;;;0.20;0.20;;;;;;;13.63;100.00;96152.38;4961900;28;20046;-73
2022/12/31 11:47:00;;;;;;;0.20;0.20;;;;;;;13.52;100.00;96153.47;4946486;28;20506;-72
2022/12/31 11:50:19;;;;;;;0.10;0.10;;;;;;;13.58;100.00;96144.31;4945564;28;20047;-73
2022/12/31 11:53:30;;;;;;;0.10;0.10;;;;;;;13.53;100.00;96141.66;4948937;28;20038;-75
2022/12/31 11:56:18;;;;;;;0.20;0.20;;;;;;;13.35;100.00;96161.88;4948628;28;20455;-74
2022/12/31 11:59:10;;;;;;;0.10;0.10;;;;;;;13.42;100.00;96209.97;4945872;28;20082;-74
2022/12/31 12:02:15;;;;;;;0.20;0.20;;;;;;;13.40;100.00;96172.63;4960426;28;20462;-73
2022/12/31 12:05:04;;;;;;;0.10;0.10;;;;;;;13.64;100.00;96153.97;4966479;28;20534;-74
2022/12/31 12:07:51;;;;;;;0.10;0.10;;;;;;;13.85;100.00;96160.06;4965340;28;20229;-75
2022/12/31 12:10:44;;;;;;;0.10;0.10;;;;;;;13.83;100.00;96151.47;4967338;28;20049;-74
2022/12/31 12:13:30;;;;;;;0.10;0.10;;;;;;;14.28;100.00;96146.94;4967702;28;20195;-76
2022/12/31 12:16:19;;;;;;;0.13;0.13;;;;;;;14.37;100.00;96145.25;4970802;28;20384;-73
2022/12/31 12:19:15;;;;;;;0.20;0.20;;;;;;;14.34;100.00;96159.28;4964966;28;20615;-76
2022/12/31 12:22:20;;;;;;;0.20;0.20;;;;;;;14.52;100.00;96145.16;4967622;28;20044;-76
2022/12/31 12:25:15;;;;;;;0.10;0.10;;;;;;;14.60;100.00;96146.47;4966528;28;20117;-75
2022/12/31 12:28:18;;;;;;;0.10;0.10;;;;;;;14.17;100.00;96138.13;4968473;28;20049;-76
2022/12/31 12:31:04;;;;;;;0.20;0.20;;;;;;;14.54;100.00;96167.22;4956492;28;20464;-74
2022/12/31 12:33:51;;;;;;;0.10;0.10;;;;;;;14.61;100.00;96156.94;4946323;28;20717;-75
2022/12/31 12:36:45;;;;;;;0.22;0.22;;;;;;;17.29;100.00;96146.81;4957848;28;20573;-75
2022/12/31 12:39:33;;;;;;;0.20;0.20;;;;;;;17.98;100.00;96151.16;4947047;28;20042;-76
2022/12/31 12:42:19;;;;;;;0.20;0.20;;;;;;;19.06;100.00;96128.59;4948467;28;20058;-77
2022/12/31 12:45:21;;;;;;;0.20;0.20;;;;;;;19.55;100.00;96124.06;4945354;28;20054;-75
2022/12/31 12:48:24;;;;;;;0.10;0.10;;;;;;;17.29;100.00;96122.47;4957418;28;20092;-74
2022/12/31 12:51:32;;;;;;;0.15;0.15;;;;;;;16.75;100.00;96122.06;4947068;28;20526;-77
2022/12/31 12:54:23;;;;;;;0.10;0.10;;;;;;;16.03;100.00;96138.50;4945026;28;20124;-73
2022/12/31 12:57:41;;;;;;;0.10;0.10;;;;;;;15.67;100.00;96138.16;4947775;28;20248;-73
2022/12/31 13:00:40;;;;;;;0.10;0.10;;;;;;;15.42;100.00;96130.34;4949971;28;20057;-75
2022/12/31 13:03:38;;;;;;;0.20;0.20;;;;;;;15.16;100.00;96125.19;4966371;28;20063;-75
2022/12/31 13:07:06;;;;;;;0.15;0.15;;;;;;;14.73;100.00;96116.19;4967190;28;20042;-75
2022/12/31 13:10:07;;;;;;;0.20;0.20;;;;;;;14.81;100.00;96117.47;4965407;28;20238;-74
2022/12/31 13:13:20;;;;;;;0.10;0.10;;;;;;;14.91;100.00;96114.69;4966585;28;20049;-75
2022/12/31 13:16:22;;;;;;;0.10;0.10;;;;;;;14.81;100.00;96117.47;4965170;28;20042;-75
2022/12/31 13:19:21;;;;;;;0.20;0.20;;;;;;;14.92;100.00;96109.00;4965068;28;20431;-73
2022/12/31 13:22:28;;;;;;;0.20;0.20;;;;;;;14.92;100.00;96137.84;4964379;28;20044;-75
2022/12/31 13:25:52;;;;;;;0.10;0.10;;;;;;;14.43;100.00;96136.84;4967503;28;20287;-74
2022/12/31 13:28:41;;;;;;;0.20;0.20;;;;;;;14.38;100.00;96136.88;4964043;28;20038;-76
2022/12/31 13:31:38;;;;;;;0.10;0.10;;;;;;;14.39;100.00;96143.06;4958130;28;20065;-73
2022/12/31 13:34:38;;;;;;;0.10;0.10;;;;;;;14.22;100.00;96138.88;4958992;28;20130;-75
2022/12/31 13:37:38;;;;;;;0.10;0.10;;;;;;;14.41;100.00;96136.34;4946609;28;20047;-74
2022/12/31 13:40:33;;;;;;;0.10;0.10;;;;;;;14.29;100.00;96152.03;4947110;28;20046;-76
2022/12/31 13:43:37;;;;;;;0.10;0.10;;;;;;;14.40;100.00;96136.63;4947320;28;20051;-74